sensor_id;sensor_type;location;lat;lon;timestamp;temperature;humidity
51837;DHT22;38941;53.254;6.600;2023-07-29T00:00:23;19.60;99.90
51837;DHT22;38941;53.254;6.600;2023-07-29T00:02:23;19.60;99.90
51837;DHT22;38941;53.254;6.600;2023-07-29T00:04:24;19.60;99.90
51837;DHT22;38941;53.254;6.600;2023-07-29T00:06:24;19.50;99.90
51837;DHT22;38941;53.254;6.600;2023-07-29T00:08:25;19.50;99.90
51837;DHT22;38941;53.254;6.600;2023-07-29T00:10:27;19.50;99.90
51837;DHT22;38941;53.254;6.600;2023-07-29T00:12:27;19.50;99.90
51837;DHT22;38941;53.254;6.600;2023-07-29T00:14:29;19.50;99.90
51837;DHT22;38941;53.254;6.600;2023-07-29T00:16:30;19.60;99.90
51837;DHT22;38941;53.254;6.600;2023-07-29T00:18:30;19.50;99.90
51837;DHT22;38941;53.254;6.600;2023-07-29T00:20:31;19.50;99.90
51837;DHT22;38941;53.254;6.600;2023-07-29T00:22:32;19.40;99.90
51837;DHT22;38941;53.254;6.600;2023-07-29T00:24:33;19.40;99.90
51837;DHT22;38941;53.254;6.600;2023-07-29T00:26:33;19.40;99.90
51837;DHT22;38941;53.254;6.600;2023-07-29T00:28:34;19.40;99.90
51837;DHT22;38941;53.254;6.600;2023-07-29T00:30:35;19.40;99.90
51837;DHT22;38941;53.254;6.600;2023-07-29T00:32:36;19.40;99.90
51837;DHT22;38941;53.254;6.600;2023-07-29T00:34:38;19.40;99.90
51837;DHT22;38941;53.254;6.600;2023-07-29T00:36:39;19.40;99.90
51837;DHT22;38941;53.254;6.600;2023-07-29T00:38:40;19.30;99.90
51837;DHT22;38941;53.254;6.600;2023-07-29T00:40:41;19.40;99.90
51837;DHT22;38941;53.254;6.600;2023-07-29T00:42:42;19.30;99.90
51837;DHT22;38941;53.254;6.600;2023-07-29T00:44:43;19.40;99.90
51837;DHT22;38941;53.254;6.600;2023-07-29T00:46:45;19.30;99.90
51837;DHT22;38941;53.254;6.600;2023-07-29T00:48:46;19.40;99.90
51837;DHT22;38941;53.254;6.600;2023-07-29T00:50:49;19.30;99.90
51837;DHT22;38941;53.254;6.600;2023-07-29T00:52:50;19.40;99.90
51837;DHT22;38941;53.254;6.600;2023-07-29T00:54:50;19.30;99.90
51837;DHT22;38941;53.254;6.600;2023-07-29T00:56:51;19.40;99.90
51837;DHT22;38941;53.254;6.600;2023-07-29T00:58:52;19.40;99.90
51837;DHT22;38941;53.254;6.600;2023-07-29T01:00:59;19.30;99.90
51837;DHT22;38941;53.254;6.600;2023-07-29T01:02:59;19.40;99.90
51837;DHT22;38941;53.254;6.600;2023-07-29T01:05:00;19.40;99.90
51837;DHT22;38941;53.254;6.600;2023-07-29T01:11:36;19.30;99.90
51837;DHT22;38941;53.254;6.600;2023-07-29T01:13:44;19.30;99.90
51837;DHT22;38941;53.254;6.600;2023-07-29T01:15:56;19.30;99.90
51837;DHT22;38941;53.254;6.600;2023-07-29T01:18:08;19.20;99.90
51837;DHT22;38941;53.254;6.600;2023-07-29T01:20:15;19.20;99.90
51837;DHT22;38941;53.254;6.600;2023-07-29T01:22:16;19.20;99.90
51837;DHT22;38941;53.254;6.600;2023-07-29T01:24:18;19.20;99.90
51837;DHT22;38941;53.254;6.600;2023-07-29T01:26:18;19.20;99.90
51837;DHT22;38941;53.254;6.600;2023-07-29T01:28:19;19.10;99.90
51837;DHT22;38941;53.254;6.600;2023-07-29T01:30:24;19.10;99.90
51837;DHT22;38941;53.254;6.600;2023-07-29T01:32:37;19.10;99.90
51837;DHT22;38941;53.254;6.600;2023-07-29T01:34:48;19.00;99.90
51837;DHT22;38941;53.254;6.600;2023-07-29T01:36:53;19.00;99.90
51837;DHT22;38941;53.254;6.600;2023-07-29T01:38:55;19.00;99.90
51837;DHT22;38941;53.254;6.600;2023-07-29T01:40:56;18.90;99.90
51837;DHT22;38941;53.254;6.600;2023-07-29T01:42:58;18.90;99.90
51837;DHT22;38941;53.254;6.600;2023-07-29T01:45:00;18.90;99.90
51837;DHT22;38941;53.254;6.600;2023-07-29T01:47:00;18.80;99.90
51837;DHT22;38941;53.254;6.600;2023-07-29T01:49:01;18.80;99.90
51837;DHT22;38941;53.254;6.600;2023-07-29T01:51:02;18.70;99.90
51837;DHT22;38941;53.254;6.600;2023-07-29T01:53:03;18.70;99.90
51837;DHT22;38941;53.254;6.600;2023-07-29T01:55:04;18.70;99.90
51837;DHT22;38941;53.254;6.600;2023-07-29T01:57:05;18.60;99.90
51837;DHT22;38941;53.254;6.600;2023-07-29T01:59:06;18.60;99.90
51837;DHT22;38941;53.254;6.600;2023-07-29T02:01:06;18.60;99.90
51837;DHT22;38941;53.254;6.600;2023-07-29T02:03:07;18.50;99.90
51837;DHT22;38941;53.254;6.600;2023-07-29T02:05:07;18.50;99.90
51837;DHT22;38941;53.254;6.600;2023-07-29T02:07:08;18.40;99.90
51837;DHT22;38941;53.254;6.600;2023-07-29T02:09:09;18.40;99.90
51837;DHT22;38941;53.254;6.600;2023-07-29T02:11:10;18.40;99.90
51837;DHT22;38941;53.254;6.600;2023-07-29T02:13:11;18.40;99.90
51837;DHT22;38941;53.254;6.600;2023-07-29T02:15:12;18.40;99.90
51837;DHT22;38941;53.254;6.600;2023-07-29T02:17:13;18.40;99.90
51837;DHT22;38941;53.254;6.600;2023-07-29T02:19:14;18.30;99.90
51837;DHT22;38941;53.254;6.600;2023-07-29T02:21:14;18.30;99.90
51837;DHT22;38941;53.254;6.600;2023-07-29T02:23:15;18.30;99.90
51837;DHT22;38941;53.254;6.600;2023-07-29T02:25:19;18.20;99.90
51837;DHT22;38941;53.254;6.600;2023-07-29T02:27:20;18.20;99.90
51837;DHT22;38941;53.254;6.600;2023-07-29T02:29:20;18.20;99.90
51837;DHT22;38941;53.254;6.600;2023-07-29T02:31:23;18.20;99.90
51837;DHT22;38941;53.254;6.600;2023-07-29T02:33:24;18.10;99.90
51837;DHT22;38941;53.254;6.600;2023-07-29T02:35:25;18.10;99.90
51837;DHT22;38941;53.254;6.600;2023-07-29T02:37:25;18.10;99.90
51837;DHT22;38941;53.254;6.600;2023-07-29T02:39:26;18.10;99.90
51837;DHT22;38941;53.254;6.600;2023-07-29T02:41:27;18.00;99.90
51837;DHT22;38941;53.254;6.600;2023-07-29T02:43:27;18.00;99.90
51837;DHT22;38941;53.254;6.600;2023-07-29T02:45:28;18.00;99.90
51837;DHT22;38941;53.254;6.600;2023-07-29T02:47:29;18.00;99.90
51837;DHT22;38941;53.254;6.600;2023-07-29T02:49:30;18.00;99.90
51837;DHT22;38941;53.254;6.600;2023-07-29T02:51:31;18.00;99.90
51837;DHT22;38941;53.254;6.600;2023-07-29T02:53:31;18.00;99.90
51837;DHT22;38941;53.254;6.600;2023-07-29T02:55:33;17.90;99.90
51837;DHT22;38941;53.254;6.600;2023-07-29T02:57:34;17.90;99.90
51837;DHT22;38941;53.254;6.600;2023-07-29T02:59:34;17.90;99.90
51837;DHT22;38941;53.254;6.600;2023-07-29T03:01:35;17.90;99.90
51837;DHT22;38941;53.254;6.600;2023-07-29T03:03:36;17.90;99.90
51837;DHT22;38941;53.254;6.600;2023-07-29T03:05:36;17.80;99.90
51837;DHT22;38941;53.254;6.600;2023-07-29T03:07:38;17.80;99.90
51837;DHT22;38941;53.254;6.600;2023-07-29T03:09:39;18.10;99.90
51837;DHT22;38941;53.254;6.600;2023-07-29T03:11:42;17.80;99.90
51837;DHT22;38941;53.254;6.600;2023-07-29T03:13:43;17.70;99.90
51837;DHT22;38941;53.254;6.600;2023-07-29T03:15:44;17.80;99.90
51837;DHT22;38941;53.254;6.600;2023-07-29T03:17:44;17.70;99.90
51837;DHT22;38941;53.254;6.600;2023-07-29T03:19:45;17.70;99.90
51837;DHT22;38941;53.254;6.600;2023-07-29T03:21:46;17.70;99.90
51837;DHT22;38941;53.254;6.600;2023-07-29T03:23:46;17.70;99.90
51837;DHT22;38941;53.254;6.600;2023-07-29T03:25:50;17.70;99.90
51837;DHT22;38941;53.254;6.600;2023-07-29T03:27:57;17.60;99.90
51837;DHT22;38941;53.254;6.600;2023-07-29T03:29:57;17.60;99.90
51837;DHT22;38941;53.254;6.600;2023-07-29T03:31:58;17.60;99.90
51837;DHT22;38941;53.254;6.600;2023-07-29T03:33:58;17.60;99.90
51837;DHT22;38941;53.254;6.600;2023-07-29T03:35:59;17.60;99.90
51837;DHT22;38941;53.254;6.600;2023-07-29T03:38:00;17.60;99.90
51837;DHT22;38941;53.254;6.600;2023-07-29T03:40:01;17.60;99.90
51837;DHT22;38941;53.254;6.600;2023-07-29T03:42:01;17.50;99.90
51837;DHT22;38941;53.254;6.600;2023-07-29T03:44:03;17.50;99.90
51837;DHT22;38941;53.254;6.600;2023-07-29T03:46:04;17.50;99.90
51837;DHT22;38941;53.254;6.600;2023-07-29T03:48:06;17.50;99.90
51837;DHT22;38941;53.254;6.600;2023-07-29T03:50:08;17.50;99.90
51837;DHT22;38941;53.254;6.600;2023-07-29T03:52:12;17.40;99.90
51837;DHT22;38941;53.254;6.600;2023-07-29T03:54:12;17.40;99.90
51837;DHT22;38941;53.254;6.600;2023-07-29T03:56:13;17.40;99.90
51837;DHT22;38941;53.254;6.600;2023-07-29T03:58:16;17.40;99.90
51837;DHT22;38941;53.254;6.600;2023-07-29T04:00:17;17.40;99.90
51837;DHT22;38941;53.254;6.600;2023-07-29T04:02:18;17.40;99.90
51837;DHT22;38941;53.254;6.600;2023-07-29T04:04:18;17.60;99.90
51837;DHT22;38941;53.254;6.600;2023-07-29T04:06:19;17.40;99.90
51837;DHT22;38941;53.254;6.600;2023-07-29T04:08:20;17.40;99.90
51837;DHT22;38941;53.254;6.600;2023-07-29T04:10:23;17.40;99.90
51837;DHT22;38941;53.254;6.600;2023-07-29T04:12:24;17.40;99.90
51837;DHT22;38941;53.254;6.600;2023-07-29T04:14:25;17.30;99.90
51837;DHT22;38941;53.254;6.600;2023-07-29T04:16:26;17.30;99.90
51837;DHT22;38941;53.254;6.600;2023-07-29T04:18:26;17.40;99.90
51837;DHT22;38941;53.254;6.600;2023-07-29T04:20:27;17.30;99.90
51837;DHT22;38941;53.254;6.600;2023-07-29T04:22:28;17.40;99.90
51837;DHT22;38941;53.254;6.600;2023-07-29T04:24:31;17.30;99.90
51837;DHT22;38941;53.254;6.600;2023-07-29T04:26:32;17.40;99.90
51837;DHT22;38941;53.254;6.600;2023-07-29T04:28:33;17.30;99.90
51837;DHT22;38941;53.254;6.600;2023-07-29T04:30:34;17.40;99.90
51837;DHT22;38941;53.254;6.600;2023-07-29T04:32:34;17.40;99.90
51837;DHT22;38941;53.254;6.600;2023-07-29T04:34:35;17.40;99.90
51837;DHT22;38941;53.254;6.600;2023-07-29T04:36:37;17.50;99.90
51837;DHT22;38941;53.254;6.600;2023-07-29T04:38:38;17.30;99.90
51837;DHT22;38941;53.254;6.600;2023-07-29T04:40:39;17.40;99.90
51837;DHT22;38941;53.254;6.600;2023-07-29T04:42:39;17.40;99.90
51837;DHT22;38941;53.254;6.600;2023-07-29T04:44:40;17.80;99.90
51837;DHT22;38941;53.254;6.600;2023-07-29T04:46:42;17.40;99.90
51837;DHT22;38941;53.254;6.600;2023-07-29T04:48:43;17.50;99.90
51837;DHT22;38941;53.254;6.600;2023-07-29T04:50:44;17.70;99.90
51837;DHT22;38941;53.254;6.600;2023-07-29T04:52:44;17.50;99.90
51837;DHT22;38941;53.254;6.600;2023-07-29T04:54:45;17.40;99.90
51837;DHT22;38941;53.254;6.600;2023-07-29T04:56:46;17.50;99.90
51837;DHT22;38941;53.254;6.600;2023-07-29T04:58:47;17.50;99.90
51837;DHT22;38941;53.254;6.600;2023-07-29T05:00:48;17.50;99.90
51837;DHT22;38941;53.254;6.600;2023-07-29T05:02:48;17.60;99.90
51837;DHT22;38941;53.254;6.600;2023-07-29T05:04:49;17.60;99.90
51837;DHT22;38941;53.254;6.600;2023-07-29T05:06:50;17.70;99.90
51837;DHT22;38941;53.254;6.600;2023-07-29T05:08:51;17.60;99.90
51837;DHT22;38941;53.254;6.600;2023-07-29T05:10:52;17.50;99.90
51837;DHT22;38941;53.254;6.600;2023-07-29T05:12:54;17.80;99.90
51837;DHT22;38941;53.254;6.600;2023-07-29T05:14:54;17.70;99.90
51837;DHT22;38941;53.254;6.600;2023-07-29T05:16:55;17.60;99.90
51837;DHT22;38941;53.254;6.600;2023-07-29T05:18:57;17.80;99.90
51837;DHT22;38941;53.254;6.600;2023-07-29T05:20:58;17.70;99.90
51837;DHT22;38941;53.254;6.600;2023-07-29T05:22:59;17.70;99.90
51837;DHT22;38941;53.254;6.600;2023-07-29T05:24:59;17.70;99.90
51837;DHT22;38941;53.254;6.600;2023-07-29T05:27:00;17.60;99.90
51837;DHT22;38941;53.254;6.600;2023-07-29T05:29:01;17.60;99.90
51837;DHT22;38941;53.254;6.600;2023-07-29T05:31:01;17.60;99.90
51837;DHT22;38941;53.254;6.600;2023-07-29T05:33:03;17.60;99.90
51837;DHT22;38941;53.254;6.600;2023-07-29T05:35:05;17.70;99.90
51837;DHT22;38941;53.254;6.600;2023-07-29T05:37:05;17.70;99.90
51837;DHT22;38941;53.254;6.600;2023-07-29T05:39:06;17.70;99.90
51837;DHT22;38941;53.254;6.600;2023-07-29T05:41:07;17.80;99.90
51837;DHT22;38941;53.254;6.600;2023-07-29T05:43:08;17.70;99.90
51837;DHT22;38941;53.254;6.600;2023-07-29T05:45:09;17.80;99.90
51837;DHT22;38941;53.254;6.600;2023-07-29T05:47:10;17.00;99.90
51837;DHT22;38941;53.254;6.600;2023-07-29T05:49:10;17.80;99.90
51837;DHT22;38941;53.254;6.600;2023-07-29T05:51:11;17.80;99.90
51837;DHT22;38941;53.254;6.600;2023-07-29T05:53:12;17.80;99.90
51837;DHT22;38941;53.254;6.600;2023-07-29T05:55:12;17.80;99.90
51837;DHT22;38941;53.254;6.600;2023-07-29T05:57:13;17.90;99.90
51837;DHT22;38941;53.254;6.600;2023-07-29T05:59:14;17.90;99.90
51837;DHT22;38941;53.254;6.600;2023-07-29T06:01:15;17.90;99.90
51837;DHT22;38941;53.254;6.600;2023-07-29T06:03:15;17.80;99.90
51837;DHT22;38941;53.254;6.600;2023-07-29T06:05:16;17.90;99.90
51837;DHT22;38941;53.254;6.600;2023-07-29T06:07:17;17.80;99.90
51837;DHT22;38941;53.254;6.600;2023-07-29T06:09:18;18.00;99.90
51837;DHT22;38941;53.254;6.600;2023-07-29T06:11:18;17.90;99.90
51837;DHT22;38941;53.254;6.600;2023-07-29T06:13:19;17.80;99.90
51837;DHT22;38941;53.254;6.600;2023-07-29T06:15:20;17.90;99.90
51837;DHT22;38941;53.254;6.600;2023-07-29T06:17:23;18.00;99.90
51837;DHT22;38941;53.254;6.600;2023-07-29T06:19:23;17.90;99.90
51837;DHT22;38941;53.254;6.600;2023-07-29T06:21:24;18.00;99.90
51837;DHT22;38941;53.254;6.600;2023-07-29T06:23:25;17.90;99.90
51837;DHT22;38941;53.254;6.600;2023-07-29T06:25:25;17.90;99.90
51837;DHT22;38941;53.254;6.600;2023-07-29T06:27:26;18.00;99.90
51837;DHT22;38941;53.254;6.600;2023-07-29T06:29:27;18.20;99.90
51837;DHT22;38941;53.254;6.600;2023-07-29T06:31:28;18.00;99.90
51837;DHT22;38941;53.254;6.600;2023-07-29T06:33:29;18.10;99.90
51837;DHT22;38941;53.254;6.600;2023-07-29T06:35:30;18.10;99.90
51837;DHT22;38941;53.254;6.600;2023-07-29T06:37:31;18.30;99.90
51837;DHT22;38941;53.254;6.600;2023-07-29T06:39:33;18.50;99.90
51837;DHT22;38941;53.254;6.600;2023-07-29T06:41:34;18.50;99.90
51837;DHT22;38941;53.254;6.600;2023-07-29T06:43:35;18.30;99.90
51837;DHT22;38941;53.254;6.600;2023-07-29T06:45:35;18.70;99.90
51837;DHT22;38941;53.254;6.600;2023-07-29T06:47:36;18.80;99.90
51837;DHT22;38941;53.254;6.600;2023-07-29T06:49:37;18.70;99.90
51837;DHT22;38941;53.254;6.600;2023-07-29T06:51:37;19.30;99.90
51837;DHT22;38941;53.254;6.600;2023-07-29T06:53:38;18.80;99.90
51837;DHT22;38941;53.254;6.600;2023-07-29T06:55:39;18.80;99.90
51837;DHT22;38941;53.254;6.600;2023-07-29T06:57:40;18.90;99.90
51837;DHT22;38941;53.254;6.600;2023-07-29T06:59:41;18.90;99.90
51837;DHT22;38941;53.254;6.600;2023-07-29T07:01:41;18.90;99.90
51837;DHT22;38941;53.254;6.600;2023-07-29T07:03:42;18.80;99.90
51837;DHT22;38941;53.254;6.600;2023-07-29T07:05:43;18.90;99.90
51837;DHT22;38941;53.254;6.600;2023-07-29T07:07:44;19.10;99.90
51837;DHT22;38941;53.254;6.600;2023-07-29T07:09:44;19.00;99.90
51837;DHT22;38941;53.254;6.600;2023-07-29T07:11:45;18.90;99.90
51837;DHT22;38941;53.254;6.600;2023-07-29T07:13:46;17.80;99.90
51837;DHT22;38941;53.254;6.600;2023-07-29T07:15:46;19.00;99.90
51837;DHT22;38941;53.254;6.600;2023-07-29T07:17:47;19.10;99.90
51837;DHT22;38941;53.254;6.600;2023-07-29T07:19:48;19.20;99.90
51837;DHT22;38941;53.254;6.600;2023-07-29T07:21:49;19.20;99.90
51837;DHT22;38941;53.254;6.600;2023-07-29T07:23:50;19.20;99.90
51837;DHT22;38941;53.254;6.600;2023-07-29T07:25:51;19.10;99.90
51837;DHT22;38941;53.254;6.600;2023-07-29T07:27:51;19.20;99.90
51837;DHT22;38941;53.254;6.600;2023-07-29T07:29:52;19.10;99.90
51837;DHT22;38941;53.254;6.600;2023-07-29T07:31:54;19.30;99.90
51837;DHT22;38941;53.254;6.600;2023-07-29T07:33:55;19.30;99.90
51837;DHT22;38941;53.254;6.600;2023-07-29T07:35:55;19.30;99.90
51837;DHT22;38941;53.254;6.600;2023-07-29T07:37:56;19.60;99.90
51837;DHT22;38941;53.254;6.600;2023-07-29T07:39:57;19.40;99.90
51837;DHT22;38941;53.254;6.600;2023-07-29T07:41:58;19.40;99.90
51837;DHT22;38941;53.254;6.600;2023-07-29T07:43:58;19.50;99.90
51837;DHT22;38941;53.254;6.600;2023-07-29T07:46:00;19.50;99.90
51837;DHT22;38941;53.254;6.600;2023-07-29T07:48:01;18.40;99.90
51837;DHT22;38941;53.254;6.600;2023-07-29T07:50:03;19.70;99.90
51837;DHT22;38941;53.254;6.600;2023-07-29T07:52:04;20.50;99.90
51837;DHT22;38941;53.254;6.600;2023-07-29T07:54:05;19.90;99.90
51837;DHT22;38941;53.254;6.600;2023-07-29T07:56:06;20.00;99.90
51837;DHT22;38941;53.254;6.600;2023-07-29T07:58:06;20.10;99.90
51837;DHT22;38941;53.254;6.600;2023-07-29T08:00:08;20.00;99.90
51837;DHT22;38941;53.254;6.600;2023-07-29T08:02:10;20.00;99.90
51837;DHT22;38941;53.254;6.600;2023-07-29T08:04:11;19.90;99.90
51837;DHT22;38941;53.254;6.600;2023-07-29T08:06:12;20.00;99.90
51837;DHT22;38941;53.254;6.600;2023-07-29T08:08:12;20.20;99.90
51837;DHT22;38941;53.254;6.600;2023-07-29T08:10:13;20.50;99.90
51837;DHT22;38941;53.254;6.600;2023-07-29T08:12:14;20.60;99.90
51837;DHT22;38941;53.254;6.600;2023-07-29T08:14:16;21.00;99.90
51837;DHT22;38941;53.254;6.600;2023-07-29T08:16:16;20.70;99.90
51837;DHT22;38941;53.254;6.600;2023-07-29T08:18:17;20.60;99.90
51837;DHT22;38941;53.254;6.600;2023-07-29T08:20:18;20.70;99.90
51837;DHT22;38941;53.254;6.600;2023-07-29T08:22:19;20.80;99.90
51837;DHT22;38941;53.254;6.600;2023-07-29T08:24:20;21.00;99.90
51837;DHT22;38941;53.254;6.600;2023-07-29T08:26:21;21.10;99.90
51837;DHT22;38941;53.254;6.600;2023-07-29T08:28:22;21.10;99.90
51837;DHT22;38941;53.254;6.600;2023-07-29T08:30:23;21.00;99.90
51837;DHT22;38941;53.254;6.600;2023-07-29T08:32:24;20.90;99.90
51837;DHT22;38941;53.254;6.600;2023-07-29T08:34:25;21.00;99.90
51837;DHT22;38941;53.254;6.600;2023-07-29T08:36:26;20.90;99.90
51837;DHT22;38941;53.254;6.600;2023-07-29T08:38:27;21.20;99.90
51837;DHT22;38941;53.254;6.600;2023-07-29T08:40:29;21.30;99.90
51837;DHT22;38941;53.254;6.600;2023-07-29T08:42:32;21.20;99.90
51837;DHT22;38941;53.254;6.600;2023-07-29T08:44:41;21.20;99.90
51837;DHT22;38941;53.254;6.600;2023-07-29T08:46:42;21.20;99.90
51837;DHT22;38941;53.254;6.600;2023-07-29T08:48:43;21.10;99.90
51837;DHT22;38941;53.254;6.600;2023-07-29T08:50:44;21.10;99.90
51837;DHT22;38941;53.254;6.600;2023-07-29T08:52:46;21.00;99.90
51837;DHT22;38941;53.254;6.600;2023-07-29T08:54:47;20.90;99.90
51837;DHT22;38941;53.254;6.600;2023-07-29T08:56:48;20.90;99.90
51837;DHT22;38941;53.254;6.600;2023-07-29T08:58:49;20.90;99.90
51837;DHT22;38941;53.254;6.600;2023-07-29T09:00:50;21.10;99.90
51837;DHT22;38941;53.254;6.600;2023-07-29T09:02:51;21.40;99.90
51837;DHT22;38941;53.254;6.600;2023-07-29T09:04:53;21.80;99.90
51837;DHT22;38941;53.254;6.600;2023-07-29T09:06:56;22.00;99.90
51837;DHT22;38941;53.254;6.600;2023-07-29T09:08:57;22.10;99.90
51837;DHT22;38941;53.254;6.600;2023-07-29T09:10:59;22.60;99.90
51837;DHT22;38941;53.254;6.600;2023-07-29T09:13:00;22.40;99.90
51837;DHT22;38941;53.254;6.600;2023-07-29T09:15:02;22.50;99.90
51837;DHT22;38941;53.254;6.600;2023-07-29T09:17:07;22.50;99.90
51837;DHT22;38941;53.254;6.600;2023-07-29T09:19:09;22.70;99.90
51837;DHT22;38941;53.254;6.600;2023-07-29T09:21:09;22.90;99.90
51837;DHT22;38941;53.254;6.600;2023-07-29T09:23:10;22.90;99.90
51837;DHT22;38941;53.254;6.600;2023-07-29T09:25:12;22.90;99.90
51837;DHT22;38941;53.254;6.600;2023-07-29T09:27:26;22.50;99.90
51837;DHT22;38941;53.254;6.600;2023-07-29T09:29:28;22.40;99.90
51837;DHT22;38941;53.254;6.600;2023-07-29T09:31:29;22.30;99.90
51837;DHT22;38941;53.254;6.600;2023-07-29T09:33:34;22.40;99.90
51837;DHT22;38941;53.254;6.600;2023-07-29T09:35:38;22.40;99.90
51837;DHT22;38941;53.254;6.600;2023-07-29T09:37:39;22.30;99.90
51837;DHT22;38941;53.254;6.600;2023-07-29T09:39:44;22.50;99.90
51837;DHT22;38941;53.254;6.600;2023-07-29T09:41:47;22.70;99.90
51837;DHT22;38941;53.254;6.600;2023-07-29T09:43:58;22.70;99.90
51837;DHT22;38941;53.254;6.600;2023-07-29T09:46:04;22.80;99.90
51837;DHT22;38941;53.254;6.600;2023-07-29T09:48:05;22.70;99.90
51837;DHT22;38941;53.254;6.600;2023-07-29T09:50:09;22.80;99.90
51837;DHT22;38941;53.254;6.600;2023-07-29T09:52:11;23.90;99.90
51837;DHT22;38941;53.254;6.600;2023-07-29T09:54:12;23.10;99.90
51837;DHT22;38941;53.254;6.600;2023-07-29T09:56:15;23.10;99.90
51837;DHT22;38941;53.254;6.600;2023-07-29T09:58:26;23.30;99.90
51837;DHT22;38941;53.254;6.600;2023-07-29T10:00:28;23.50;99.90
51837;DHT22;38941;53.254;6.600;2023-07-29T10:02:29;23.60;99.90
51837;DHT22;38941;53.254;6.600;2023-07-29T10:04:31;23.60;99.90
51837;DHT22;38941;53.254;6.600;2023-07-29T10:06:34;23.50;99.90
51837;DHT22;38941;53.254;6.600;2023-07-29T10:08:35;23.40;99.90
51837;DHT22;38941;53.254;6.600;2023-07-29T10:10:36;23.40;99.90
51837;DHT22;38941;53.254;6.600;2023-07-29T10:12:39;23.50;99.90
51837;DHT22;38941;53.254;6.600;2023-07-29T10:14:40;23.70;99.90
51837;DHT22;38941;53.254;6.600;2023-07-29T10:16:42;23.80;99.90
51837;DHT22;38941;53.254;6.600;2023-07-29T10:18:45;24.10;99.90
51837;DHT22;38941;53.254;6.600;2023-07-29T10:20:48;24.20;99.90
51837;DHT22;38941;53.254;6.600;2023-07-29T10:22:51;24.30;99.90
51837;DHT22;38941;53.254;6.600;2023-07-29T10:25:02;24.30;99.90
51837;DHT22;38941;53.254;6.600;2023-07-29T10:27:03;24.30;99.90
51837;DHT22;38941;53.254;6.600;2023-07-29T10:29:07;24.30;99.90
51837;DHT22;38941;53.254;6.600;2023-07-29T10:31:11;24.20;99.90
51837;DHT22;38941;53.254;6.600;2023-07-29T10:33:12;24.10;99.90
51837;DHT22;38941;53.254;6.600;2023-07-29T10:35:16;24.00;99.90
51837;DHT22;38941;53.254;6.600;2023-07-29T10:37:17;24.00;99.90
51837;DHT22;38941;53.254;6.600;2023-07-29T10:39:18;24.10;99.90
51837;DHT22;38941;53.254;6.600;2023-07-29T10:41:18;24.10;99.90
51837;DHT22;38941;53.254;6.600;2023-07-29T10:43:28;24.10;99.90
51837;DHT22;38941;53.254;6.600;2023-07-29T10:45:39;24.30;99.90
51837;DHT22;38941;53.254;6.600;2023-07-29T10:47:40;24.50;99.90
51837;DHT22;38941;53.254;6.600;2023-07-29T10:49:41;24.50;99.90
51837;DHT22;38941;53.254;6.600;2023-07-29T10:51:43;24.70;99.90
51837;DHT22;38941;53.254;6.600;2023-07-29T10:53:44;24.80;99.90
51837;DHT22;38941;53.254;6.600;2023-07-29T10:55:44;25.00;99.90
51837;DHT22;38941;53.254;6.600;2023-07-29T10:57:45;24.90;99.90
51837;DHT22;38941;53.254;6.600;2023-07-29T10:59:54;24.80;99.90
51837;DHT22;38941;53.254;6.600;2023-07-29T11:02:00;24.50;99.90
51837;DHT22;38941;53.254;6.600;2023-07-29T11:06:24;24.00;99.90
51837;DHT22;38941;53.254;6.600;2023-07-29T11:08:29;23.70;99.90
51837;DHT22;38941;53.254;6.600;2023-07-29T11:10:42;23.50;99.90
51837;DHT22;38941;53.254;6.600;2023-07-29T11:12:47;23.30;99.90
51837;DHT22;38941;53.254;6.600;2023-07-29T11:14:48;23.20;99.90
51837;DHT22;38941;53.254;6.600;2023-07-29T11:16:49;23.00;99.90
51837;DHT22;38941;53.254;6.600;2023-07-29T11:18:50;22.80;99.90
51837;DHT22;38941;53.254;6.600;2023-07-29T11:20:54;22.70;99.90
51837;DHT22;38941;53.254;6.600;2023-07-29T11:22:57;22.60;99.90
51837;DHT22;38941;53.254;6.600;2023-07-29T11:24:57;22.40;99.90
51837;DHT22;38941;53.254;6.600;2023-07-29T11:26:58;21.90;99.90
51837;DHT22;38941;53.254;6.600;2023-07-29T11:28:59;21.50;99.90
51837;DHT22;38941;53.254;6.600;2023-07-29T11:31:00;21.10;99.90
51837;DHT22;38941;53.254;6.600;2023-07-29T11:33:01;20.90;99.90
51837;DHT22;38941;53.254;6.600;2023-07-29T11:35:10;20.70;99.90
51837;DHT22;38941;53.254;6.600;2023-07-29T11:37:11;20.90;99.90
51837;DHT22;38941;53.254;6.600;2023-07-29T11:39:12;21.00;99.90
51837;DHT22;38941;53.254;6.600;2023-07-29T11:41:19;21.30;99.90
51837;DHT22;38941;53.254;6.600;2023-07-29T11:43:19;21.50;99.90
51837;DHT22;38941;53.254;6.600;2023-07-29T11:45:21;21.60;99.90
51837;DHT22;38941;53.254;6.600;2023-07-29T11:47:22;21.80;99.90
51837;DHT22;38941;53.254;6.600;2023-07-29T11:49:23;22.20;99.90
51837;DHT22;38941;53.254;6.600;2023-07-29T11:51:25;22.40;99.90
51837;DHT22;38941;53.254;6.600;2023-07-29T11:53:28;22.70;99.90
51837;DHT22;38941;53.254;6.600;2023-07-29T11:55:30;22.90;99.90
51837;DHT22;38941;53.254;6.600;2023-07-29T11:57:32;23.00;99.90
51837;DHT22;38941;53.254;6.600;2023-07-29T11:59:35;23.20;99.90
51837;DHT22;38941;53.254;6.600;2023-07-29T12:01:36;23.00;99.90
51837;DHT22;38941;53.254;6.600;2023-07-29T12:03:37;22.90;99.90
51837;DHT22;38941;53.254;6.600;2023-07-29T12:05:38;22.60;99.90
51837;DHT22;38941;53.254;6.600;2023-07-29T12:07:39;22.30;99.90
51837;DHT22;38941;53.254;6.600;2023-07-29T12:09:41;22.10;99.90
51837;DHT22;38941;53.254;6.600;2023-07-29T12:11:42;21.90;99.90
51837;DHT22;38941;53.254;6.600;2023-07-29T12:13:43;21.90;99.90
51837;DHT22;38941;53.254;6.600;2023-07-29T12:15:44;22.10;99.90
51837;DHT22;38941;53.254;6.600;2023-07-29T12:17:44;22.20;99.90
51837;DHT22;38941;53.254;6.600;2023-07-29T12:19:45;22.20;99.90
51837;DHT22;38941;53.254;6.600;2023-07-29T12:21:46;22.20;99.90
51837;DHT22;38941;53.254;6.600;2023-07-29T12:23:46;22.10;99.90
51837;DHT22;38941;53.254;6.600;2023-07-29T12:25:47;23.40;99.90
51837;DHT22;38941;53.254;6.600;2023-07-29T12:27:48;22.20;99.90
51837;DHT22;38941;53.254;6.600;2023-07-29T12:29:52;22.50;99.90
51837;DHT22;38941;53.254;6.600;2023-07-29T12:32:03;22.60;99.90
51837;DHT22;38941;53.254;6.600;2023-07-29T12:34:04;22.70;99.90
51837;DHT22;38941;53.254;6.600;2023-07-29T12:36:05;22.70;99.90
51837;DHT22;38941;53.254;6.600;2023-07-29T12:38:06;22.80;99.90
51837;DHT22;38941;53.254;6.600;2023-07-29T12:40:07;23.00;99.90
51837;DHT22;38941;53.254;6.600;2023-07-29T12:42:07;23.30;99.90
51837;DHT22;38941;53.254;6.600;2023-07-29T12:44:08;23.50;99.90
51837;DHT22;38941;53.254;6.600;2023-07-29T12:46:09;23.40;99.90
51837;DHT22;38941;53.254;6.600;2023-07-29T12:48:10;23.30;99.90
51837;DHT22;38941;53.254;6.600;2023-07-29T12:50:11;23.40;99.90
51837;DHT22;38941;53.254;6.600;2023-07-29T12:52:11;23.40;99.90
51837;DHT22;38941;53.254;6.600;2023-07-29T12:54:12;23.50;99.90